Kailua Kona, Hawaii
Current Conditions -  °F | °C
As of 10:53 AM on Saturday 22 Nov 2014 (Local Time) from PHKO Reporting Station
Few Clouds Few Clouds  
Wind Chill: 83°   Ceiling: Unl
Heat Index: 87°   Visibility: 10mi
Dew Point: 70°   Wind: 8mph
Humidity: 65%   Direction: 260°W
Pressure: 30.01"   Gusts: NA
Location:  19.73°N, 156.05°W
Report Text: PHKO 222053Z 26007KT 10SM FEW028 28/21 A3001 RMK AO2 SLP163 T02830211 58000
Loading
Personal Weather Stations






























Interactive Weather Map New forecast layout! Learn more

10-Day Weather Forecast

Advertisements
Track Severe Weather on mobile